sensor_id;sensor_type;location;lat;lon;timestamp;temperature;humidity
9033;DHT22;4551;53.164;8.210;2022-12-11T00:02:04;0.70;99.90
9033;DHT22;4551;53.164;8.210;2022-12-11T00:04:32;0.70;99.90
9033;DHT22;4551;53.164;8.210;2022-12-11T00:07:01;0.80;99.90
9033;DHT22;4551;53.164;8.210;2022-12-11T00:09:29;0.80;99.90
9033;DHT22;4551;53.164;8.210;2022-12-11T00:11:57;0.80;99.90
9033;DHT22;4551;53.164;8.210;2022-12-11T00:14:28;0.80;99.90
9033;DHT22;4551;53.164;8.210;2022-12-11T00:16:56;0.80;99.90
9033;DHT22;4551;53.164;8.210;2022-12-11T00:19:25;0.80;99.90
9033;DHT22;4551;53.164;8.210;2022-12-11T00:21:53;0.70;99.90
9033;DHT22;4551;53.164;8.210;2022-12-11T00:24:22;0.70;99.90
9033;DHT22;4551;53.164;8.210;2022-12-11T00:26:50;0.80;99.90
9033;DHT22;4551;53.164;8.210;2022-12-11T00:29:21;0.80;99.90
9033;DHT22;4551;53.164;8.210;2022-12-11T00:31:49;0.80;99.90
9033;DHT22;4551;53.164;8.210;2022-12-11T00:34:17;0.80;99.90
9033;DHT22;4551;53.164;8.210;2022-12-11T00:36:45;0.80;99.90
9033;DHT22;4551;53.164;8.210;2022-12-11T00:39:13;0.80;99.90
9033;DHT22;4551;53.164;8.210;2022-12-11T00:41:46;0.80;99.90
9033;DHT22;4551;53.164;8.210;2022-12-11T00:44:14;0.80;99.90
9033;DHT22;4551;53.164;8.210;2022-12-11T00:46:42;0.80;99.90
9033;DHT22;4551;53.164;8.210;2022-12-11T00:49:10;0.80;99.90
9033;DHT22;4551;53.164;8.210;2022-12-11T00:51:39;0.80;99.90
9033;DHT22;4551;53.164;8.210;2022-12-11T00:54:09;0.80;99.90
9033;DHT22;4551;53.164;8.210;2022-12-11T00:56:38;0.80;99.90
9033;DHT22;4551;53.164;8.210;2022-12-11T00:59:07;0.70;99.90
9033;DHT22;4551;53.164;8.210;2022-12-11T01:01:35;0.70;99.90
9033;DHT22;4551;53.164;8.210;2022-12-11T01:04:03;0.70;99.90
9033;DHT22;4551;53.164;8.210;2022-12-11T01:06:33;0.60;99.90
9033;DHT22;4551;53.164;8.210;2022-12-11T01:09:01;0.60;99.90
9033;DHT22;4551;53.164;8.210;2022-12-11T01:11:47;0.60;99.90
9033;DHT22;4551;53.164;8.210;2022-12-11T01:14:16;0.60;99.90
9033;DHT22;4551;53.164;8.210;2022-12-11T01:16:44;0.60;99.90
9033;DHT22;4551;53.164;8.210;2022-12-11T01:19:12;0.60;99.90
9033;DHT22;4551;53.164;8.210;2022-12-11T01:21:43;0.60;99.90
9033;DHT22;4551;53.164;8.210;2022-12-11T01:24:11;0.70;99.90
9033;DHT22;4551;53.164;8.210;2022-12-11T01:26:39;0.70;99.90
9033;DHT22;4551;53.164;8.210;2022-12-11T01:29:07;0.70;99.90
9033;DHT22;4551;53.164;8.210;2022-12-11T01:31:37;0.70;99.90
9033;DHT22;4551;53.164;8.210;2022-12-11T01:34:07;0.70;99.90
9033;DHT22;4551;53.164;8.210;2022-12-11T01:36:35;0.70;99.90
9033;DHT22;4551;53.164;8.210;2022-12-11T01:39:03;0.60;99.90
9033;DHT22;4551;53.164;8.210;2022-12-11T01:41:31;0.60;99.90
9033;DHT22;4551;53.164;8.210;2022-12-11T01:44:00;0.60;99.90
9033;DHT22;4551;53.164;8.210;2022-12-11T01:46:30;0.60;99.90
9033;DHT22;4551;53.164;8.210;2022-12-11T01:49:00;0.60;99.90
9033;DHT22;4551;53.164;8.210;2022-12-11T01:51:29;0.60;99.90
9033;DHT22;4551;53.164;8.210;2022-12-11T01:53:59;0.60;99.90
9033;DHT22;4551;53.164;8.210;2022-12-11T01:56:31;0.60;99.90
9033;DHT22;4551;53.164;8.210;2022-12-11T01:59:01;0.60;99.90
9033;DHT22;4551;53.164;8.210;2022-12-11T02:01:34;0.60;99.90
9033;DHT22;4551;53.164;8.210;2022-12-11T02:04:06;0.60;99.90
9033;DHT22;4551;53.164;8.210;2022-12-11T02:06:36;0.60;99.90
9033;DHT22;4551;53.164;8.210;2022-12-11T02:09:05;0.60;99.90
9033;DHT22;4551;53.164;8.210;2022-12-11T02:11:37;0.60;99.90
9033;DHT22;4551;53.164;8.210;2022-12-11T02:14:10;0.60;99.90
9033;DHT22;4551;53.164;8.210;2022-12-11T02:16:44;0.60;99.90
9033;DHT22;4551;53.164;8.210;2022-12-11T02:19:17;0.60;99.90
9033;DHT22;4551;53.164;8.210;2022-12-11T02:21:48;0.30;99.90
9033;DHT22;4551;53.164;8.210;2022-12-11T02:24:25;0.50;99.90
9033;DHT22;4551;53.164;8.210;2022-12-11T02:27:02;0.50;99.90
9033;DHT22;4551;53.164;8.210;2022-12-11T02:29:37;0.50;99.90
9033;DHT22;4551;53.164;8.210;2022-12-11T02:32:07;0.60;99.90
9033;DHT22;4551;53.164;8.210;2022-12-11T02:34:40;0.60;99.90
9033;DHT22;4551;53.164;8.210;2022-12-11T02:37:10;0.60;99.90
9033;DHT22;4551;53.164;8.210;2022-12-11T02:39:44;0.60;99.90
9033;DHT22;4551;53.164;8.210;2022-12-11T02:42:13;0.60;99.90
9033;DHT22;4551;53.164;8.210;2022-12-11T02:44:43;0.60;99.90
9033;DHT22;4551;53.164;8.210;2022-12-11T02:47:17;0.60;99.90
9033;DHT22;4551;53.164;8.210;2022-12-11T02:49:46;0.60;99.90
9033;DHT22;4551;53.164;8.210;2022-12-11T02:52:15;0.60;99.90
9033;DHT22;4551;53.164;8.210;2022-12-11T02:54:46;0.60;99.90
9033;DHT22;4551;53.164;8.210;2022-12-11T02:57:16;0.60;99.90
9033;DHT22;4551;53.164;8.210;2022-12-11T02:59:47;0.60;99.90
9033;DHT22;4551;53.164;8.210;2022-12-11T03:02:15;0.60;99.90
9033;DHT22;4551;53.164;8.210;2022-12-11T03:04:45;0.60;99.90
9033;DHT22;4551;53.164;8.210;2022-12-11T03:07:14;0.60;99.90
9033;DHT22;4551;53.164;8.210;2022-12-11T03:09:46;0.50;99.90
9033;DHT22;4551;53.164;8.210;2022-12-11T03:12:14;0.50;99.90
9033;DHT22;4551;53.164;8.210;2022-12-11T03:14:44;0.40;99.90
9033;DHT22;4551;53.164;8.210;2022-12-11T03:17:15;0.40;99.90
9033;DHT22;4551;53.164;8.210;2022-12-11T03:19:46;0.40;99.90
9033;DHT22;4551;53.164;8.210;2022-12-11T03:22:18;0.50;99.90
9033;DHT22;4551;53.164;8.210;2022-12-11T03:25:08;0.40;99.90
9033;DHT22;4551;53.164;8.210;2022-12-11T03:27:41;0.50;99.90
9033;DHT22;4551;53.164;8.210;2022-12-11T03:30:11;0.40;99.90
9033;DHT22;4551;53.164;8.210;2022-12-11T03:32:42;0.40;99.90
9033;DHT22;4551;53.164;8.210;2022-12-11T03:35:13;0.40;99.90
9033;DHT22;4551;53.164;8.210;2022-12-11T03:37:43;0.40;99.90
9033;DHT22;4551;53.164;8.210;2022-12-11T03:40:12;0.40;99.90
9033;DHT22;4551;53.164;8.210;2022-12-11T03:42:41;0.40;99.90
9033;DHT22;4551;53.164;8.210;2022-12-11T03:45:10;0.40;99.90
9033;DHT22;4551;53.164;8.210;2022-12-11T03:47:39;0.40;99.90
9033;DHT22;4551;53.164;8.210;2022-12-11T03:50:10;0.40;99.90
9033;DHT22;4551;53.164;8.210;2022-12-11T03:52:38;0.40;99.90
9033;DHT22;4551;53.164;8.210;2022-12-11T03:55:12;0.30;99.90
9033;DHT22;4551;53.164;8.210;2022-12-11T03:57:41;0.30;99.90
9033;DHT22;4551;53.164;8.210;2022-12-11T04:00:12;0.30;99.90
9033;DHT22;4551;53.164;8.210;2022-12-11T04:02:41;0.30;99.90
9033;DHT22;4551;53.164;8.210;2022-12-11T04:05:11;0.30;99.90
9033;DHT22;4551;53.164;8.210;2022-12-11T04:07:39;0.30;99.90
9033;DHT22;4551;53.164;8.210;2022-12-11T04:10:10;0.30;99.90
9033;DHT22;4551;53.164;8.210;2022-12-11T04:12:38;0.30;99.90
9033;DHT22;4551;53.164;8.210;2022-12-11T04:15:06;0.20;99.90
9033;DHT22;4551;53.164;8.210;2022-12-11T04:17:38;0.20;99.90
9033;DHT22;4551;53.164;8.210;2022-12-11T04:20:36;0.20;99.90
9033;DHT22;4551;53.164;8.210;2022-12-11T04:23:21;0.10;99.90
9033;DHT22;4551;53.164;8.210;2022-12-11T04:26:07;0.20;99.90
9033;DHT22;4551;53.164;8.210;2022-12-11T04:28:37;0.20;99.90
9033;DHT22;4551;53.164;8.210;2022-12-11T04:31:05;0.10;99.90
9033;DHT22;4551;53.164;8.210;2022-12-11T04:33:33;0.10;99.90
9033;DHT22;4551;53.164;8.210;2022-12-11T04:36:03;0.10;99.90
9033;DHT22;4551;53.164;8.210;2022-12-11T04:38:31;0.10;99.90
9033;DHT22;4551;53.164;8.210;2022-12-11T04:40:59;0.10;99.90
9033;DHT22;4551;53.164;8.210;2022-12-11T04:43:27;0.10;99.90
9033;DHT22;4551;53.164;8.210;2022-12-11T04:46:02;0.10;99.90
9033;DHT22;4551;53.164;8.210;2022-12-11T04:48:30;0.10;99.90
9033;DHT22;4551;53.164;8.210;2022-12-11T04:51:03;0.10;99.90
9033;DHT22;4551;53.164;8.210;2022-12-11T04:53:31;0.10;99.90
9033;DHT22;4551;53.164;8.210;2022-12-11T04:55:59;0.00;99.90
9033;DHT22;4551;53.164;8.210;2022-12-11T04:58:30;0.00;99.90
9033;DHT22;4551;53.164;8.210;2022-12-11T05:00:58;0.00;99.90
9033;DHT22;4551;53.164;8.210;2022-12-11T05:03:27;0.00;99.90
9033;DHT22;4551;53.164;8.210;2022-12-11T05:05:55;0.00;99.90
9033;DHT22;4551;53.164;8.210;2022-12-11T05:08:24;0.00;99.90
9033;DHT22;4551;53.164;8.210;2022-12-11T05:10:55;-0.10;99.90
9033;DHT22;4551;53.164;8.210;2022-12-11T05:13:26;-0.10;99.90
9033;DHT22;4551;53.164;8.210;2022-12-11T05:15:54;-0.10;99.90
9033;DHT22;4551;53.164;8.210;2022-12-11T05:18:23;-0.10;99.90
9033;DHT22;4551;53.164;8.210;2022-12-11T05:20:55;-0.10;99.90
9033;DHT22;4551;53.164;8.210;2022-12-11T05:23:27;-0.20;99.90
9033;DHT22;4551;53.164;8.210;2022-12-11T05:25:58;-0.10;99.90
9033;DHT22;4551;53.164;8.210;2022-12-11T05:28:29;-0.20;99.90
9033;DHT22;4551;53.164;8.210;2022-12-11T05:31:01;-0.10;99.90
9033;DHT22;4551;53.164;8.210;2022-12-11T05:33:30;-0.20;99.90
9033;DHT22;4551;53.164;8.210;2022-12-11T05:35:58;-0.10;99.90
9033;DHT22;4551;53.164;8.210;2022-12-11T05:38:27;-0.20;99.90
9033;DHT22;4551;53.164;8.210;2022-12-11T05:40:55;-0.20;99.90
9033;DHT22;4551;53.164;8.210;2022-12-11T05:43:24;-0.30;99.90
9033;DHT22;4551;53.164;8.210;2022-12-11T05:45:53;-0.30;99.90
9033;DHT22;4551;53.164;8.210;2022-12-11T05:48:24;-0.40;99.90
9033;DHT22;4551;53.164;8.210;2022-12-11T05:50:55;-0.40;99.90
9033;DHT22;4551;53.164;8.210;2022-12-11T05:53:23;-0.40;99.90
9033;DHT22;4551;53.164;8.210;2022-12-11T05:55:53;-0.40;99.90
9033;DHT22;4551;53.164;8.210;2022-12-11T05:58:23;-0.40;99.90
9033;DHT22;4551;53.164;8.210;2022-12-11T06:00:54;-0.40;99.90
9033;DHT22;4551;53.164;8.210;2022-12-11T06:03:22;-0.50;99.90
9033;DHT22;4551;53.164;8.210;2022-12-11T06:05:50;-0.50;99.90
9033;DHT22;4551;53.164;8.210;2022-12-11T06:08:24;-0.40;99.90
9033;DHT22;4551;53.164;8.210;2022-12-11T06:10:56;-0.50;99.90
9033;DHT22;4551;53.164;8.210;2022-12-11T06:13:25;-0.40;99.90
9033;DHT22;4551;53.164;8.210;2022-12-11T06:15:53;-0.50;99.90
9033;DHT22;4551;53.164;8.210;2022-12-11T06:18:21;-0.40;99.90
9033;DHT22;4551;53.164;8.210;2022-12-11T06:20:49;-0.40;99.90
9033;DHT22;4551;53.164;8.210;2022-12-11T06:23:17;-0.40;99.90
9033;DHT22;4551;53.164;8.210;2022-12-11T06:25:45;-0.40;99.90
9033;DHT22;4551;53.164;8.210;2022-12-11T06:28:15;-0.40;99.90
9033;DHT22;4551;53.164;8.210;2022-12-11T06:30:43;0.10;99.90
9033;DHT22;4551;53.164;8.210;2022-12-11T06:33:20;-0.40;99.90
9033;DHT22;4551;53.164;8.210;2022-12-11T06:35:48;-0.40;99.90
9033;DHT22;4551;53.164;8.210;2022-12-11T06:38:16;-0.40;99.90
9033;DHT22;4551;53.164;8.210;2022-12-11T06:40:44;-0.40;99.90
9033;DHT22;4551;53.164;8.210;2022-12-11T06:43:12;-0.50;99.90
9033;DHT22;4551;53.164;8.210;2022-12-11T06:45:41;-0.50;99.90
9033;DHT22;4551;53.164;8.210;2022-12-11T06:48:19;-0.50;99.90
9033;DHT22;4551;53.164;8.210;2022-12-11T06:50:47;-0.50;99.90
9033;DHT22;4551;53.164;8.210;2022-12-11T06:53:15;-0.30;99.90
9033;DHT22;4551;53.164;8.210;2022-12-11T06:55:43;-0.50;99.90
9033;DHT22;4551;53.164;8.210;2022-12-11T06:58:11;-0.50;99.90
9033;DHT22;4551;53.164;8.210;2022-12-11T07:00:39;-0.50;99.90
9033;DHT22;4551;53.164;8.210;2022-12-11T07:03:09;-0.50;99.90
9033;DHT22;4551;53.164;8.210;2022-12-11T07:05:39;-0.50;99.90
9033;DHT22;4551;53.164;8.210;2022-12-11T07:08:18;-0.50;99.90
9033;DHT22;4551;53.164;8.210;2022-12-11T07:10:46;-0.50;99.90
9033;DHT22;4551;53.164;8.210;2022-12-11T07:13:14;-0.50;99.90
9033;DHT22;4551;53.164;8.210;2022-12-11T07:15:44;-0.50;99.90
9033;DHT22;4551;53.164;8.210;2022-12-11T07:18:12;-0.50;99.90
9033;DHT22;4551;53.164;8.210;2022-12-11T07:20:40;-0.50;99.90
9033;DHT22;4551;53.164;8.210;2022-12-11T07:23:13;-0.60;99.90
9033;DHT22;4551;53.164;8.210;2022-12-11T07:25:42;-0.60;99.90
9033;DHT22;4551;53.164;8.210;2022-12-11T07:28:10;-0.60;99.90
9033;DHT22;4551;53.164;8.210;2022-12-11T07:30:42;-0.50;99.90
9033;DHT22;4551;53.164;8.210;2022-12-11T07:33:10;-0.50;99.90
9033;DHT22;4551;53.164;8.210;2022-12-11T07:35:38;-0.60;99.90
9033;DHT22;4551;53.164;8.210;2022-12-11T07:38:06;-0.60;99.90
9033;DHT22;4551;53.164;8.210;2022-12-11T07:40:42;-0.50;99.90
9033;DHT22;4551;53.164;8.210;2022-12-11T07:43:10;-0.50;99.90
9033;DHT22;4551;53.164;8.210;2022-12-11T07:45:41;-0.50;99.90
9033;DHT22;4551;53.164;8.210;2022-12-11T07:48:10;-0.50;99.90
9033;DHT22;4551;53.164;8.210;2022-12-11T07:50:38;-0.50;99.90
9033;DHT22;4551;53.164;8.210;2022-12-11T07:53:07;-0.50;99.90
9033;DHT22;4551;53.164;8.210;2022-12-11T07:55:35;0.30;99.90
9033;DHT22;4551;53.164;8.210;2022-12-11T07:58:05;-0.40;99.90
9033;DHT22;4551;53.164;8.210;2022-12-11T08:00:34;-0.40;99.90
9033;DHT22;4551;53.164;8.210;2022-12-11T08:03:05;-0.40;99.90
9033;DHT22;4551;53.164;8.210;2022-12-11T08:05:47;-0.40;99.90
9033;DHT22;4551;53.164;8.210;2022-12-11T08:08:15;-0.40;99.90
9033;DHT22;4551;53.164;8.210;2022-12-11T08:10:47;-0.40;99.90
9033;DHT22;4551;53.164;8.210;2022-12-11T08:13:16;-0.40;99.90
9033;DHT22;4551;53.164;8.210;2022-12-11T08:15:46;-0.40;99.90
9033;DHT22;4551;53.164;8.210;2022-12-11T08:18:14;-0.40;99.90
9033;DHT22;4551;53.164;8.210;2022-12-11T08:20:42;-0.40;99.90
9033;DHT22;4551;53.164;8.210;2022-12-11T08:23:10;-0.40;99.90
9033;DHT22;4551;53.164;8.210;2022-12-11T08:25:38;-0.40;99.90
9033;DHT22;4551;53.164;8.210;2022-12-11T08:28:08;-0.40;99.90
9033;DHT22;4551;53.164;8.210;2022-12-11T08:30:38;-0.40;99.90
9033;DHT22;4551;53.164;8.210;2022-12-11T08:33:06;-0.40;99.90
9033;DHT22;4551;53.164;8.210;2022-12-11T08:35:37;-0.40;99.90
9033;DHT22;4551;53.164;8.210;2022-12-11T08:38:05;-0.40;99.90
9033;DHT22;4551;53.164;8.210;2022-12-11T08:40:33;-0.40;99.90
9033;DHT22;4551;53.164;8.210;2022-12-11T08:43:02;-0.40;99.90
9033;DHT22;4551;53.164;8.210;2022-12-11T08:45:30;-0.40;99.90
9033;DHT22;4551;53.164;8.210;2022-12-11T08:48:00;-0.40;99.90
9033;DHT22;4551;53.164;8.210;2022-12-11T08:50:28;-0.40;99.90
9033;DHT22;4551;53.164;8.210;2022-12-11T08:52:58;-0.40;99.90
9033;DHT22;4551;53.164;8.210;2022-12-11T08:55:26;-0.40;99.90
9033;DHT22;4551;53.164;8.210;2022-12-11T08:57:54;-0.40;99.90
9033;DHT22;4551;53.164;8.210;2022-12-11T09:00:22;-0.30;99.90
9033;DHT22;4551;53.164;8.210;2022-12-11T09:02:50;-0.40;99.90
9033;DHT22;4551;53.164;8.210;2022-12-11T09:05:22;-0.40;99.90
9033;DHT22;4551;53.164;8.210;2022-12-11T09:07:50;-0.40;99.90
9033;DHT22;4551;53.164;8.210;2022-12-11T09:10:21;-0.40;99.90
9033;DHT22;4551;53.164;8.210;2022-12-11T09:12:49;-0.40;99.90
9033;DHT22;4551;53.164;8.210;2022-12-11T09:15:17;-0.30;99.90
9033;DHT22;4551;53.164;8.210;2022-12-11T09:17:45;-0.30;99.90
9033;DHT22;4551;53.164;8.210;2022-12-11T09:20:13;-0.30;99.90
9033;DHT22;4551;53.164;8.210;2022-12-11T09:22:43;-0.30;99.90
9033;DHT22;4551;53.164;8.210;2022-12-11T09:25:15;-0.30;99.90
9033;DHT22;4551;53.164;8.210;2022-12-11T09:27:52;-0.30;99.90
9033;DHT22;4551;53.164;8.210;2022-12-11T09:30:20;-0.30;99.90
9033;DHT22;4551;53.164;8.210;2022-12-11T09:32:48;-0.30;99.90
9033;DHT22;4551;53.164;8.210;2022-12-11T09:35:16;-0.40;99.90
9033;DHT22;4551;53.164;8.210;2022-12-11T09:37:49;-0.40;99.90
9033;DHT22;4551;53.164;8.210;2022-12-11T09:40:17;-0.40;99.90
9033;DHT22;4551;53.164;8.210;2022-12-11T09:42:47;-0.40;99.90
9033;DHT22;4551;53.164;8.210;2022-12-11T09:45:20;-0.40;99.90
9033;DHT22;4551;53.164;8.210;2022-12-11T09:47:48;-0.40;99.90
9033;DHT22;4551;53.164;8.210;2022-12-11T09:50:19;-0.40;99.90
9033;DHT22;4551;53.164;8.210;2022-12-11T09:53:03;-0.50;99.90
9033;DHT22;4551;53.164;8.210;2022-12-11T09:55:36;-0.50;99.90
9033;DHT22;4551;53.164;8.210;2022-12-11T09:58:09;-0.50;99.90
9033;DHT22;4551;53.164;8.210;2022-12-11T10:00:42;-0.50;99.90
9033;DHT22;4551;53.164;8.210;2022-12-11T10:03:23;-0.50;99.90
9033;DHT22;4551;53.164;8.210;2022-12-11T10:05:57;-0.50;99.90
9033;DHT22;4551;53.164;8.210;2022-12-11T10:08:33;-0.50;99.90
9033;DHT22;4551;53.164;8.210;2022-12-11T10:11:04;-0.50;99.90
9033;DHT22;4551;53.164;8.210;2022-12-11T10:13:42;-0.50;99.90
9033;DHT22;4551;53.164;8.210;2022-12-11T10:16:17;-0.50;99.90
9033;DHT22;4551;53.164;8.210;2022-12-11T10:18:49;-0.50;99.90
9033;DHT22;4551;53.164;8.210;2022-12-11T10:21:18;-0.50;99.90
9033;DHT22;4551;53.164;8.210;2022-12-11T10:23:49;-0.40;99.90
9033;DHT22;4551;53.164;8.210;2022-12-11T10:26:19;-0.40;99.90
9033;DHT22;4551;53.164;8.210;2022-12-11T10:28:48;-0.40;99.90
9033;DHT22;4551;53.164;8.210;2022-12-11T10:31:16;-0.40;99.90
9033;DHT22;4551;53.164;8.210;2022-12-11T10:33:48;-0.40;99.90
9033;DHT22;4551;53.164;8.210;2022-12-11T10:36:19;-0.40;99.90
9033;DHT22;4551;53.164;8.210;2022-12-11T10:38:50;-0.40;99.90
9033;DHT22;4551;53.164;8.210;2022-12-11T10:41:21;-0.40;99.90
9033;DHT22;4551;53.164;8.210;2022-12-11T10:43:51;-0.40;99.90
9033;DHT22;4551;53.164;8.210;2022-12-11T10:46:23;-0.40;99.90
9033;DHT22;4551;53.164;8.210;2022-12-11T10:48:52;-0.40;99.90
9033;DHT22;4551;53.164;8.210;2022-12-11T10:51:21;-0.40;99.90
9033;DHT22;4551;53.164;8.210;2022-12-11T10:53:51;-0.40;99.90
9033;DHT22;4551;53.164;8.210;2022-12-11T10:59:05;-0.40;99.90
9033;DHT22;4551;53.164;8.210;2022-12-11T11:01:33;-0.40;99.90
9033;DHT22;4551;53.164;8.210;2022-12-11T11:04:03;-0.40;99.90
9033;DHT22;4551;53.164;8.210;2022-12-11T11:06:34;-0.50;99.90
9033;DHT22;4551;53.164;8.210;2022-12-11T11:11:49;-0.40;99.90
9033;DHT22;4551;53.164;8.210;2022-12-11T11:14:18;-0.40;99.90
9033;DHT22;4551;53.164;8.210;2022-12-11T11:16:46;-0.50;99.90
9033;DHT22;4551;53.164;8.210;2022-12-11T11:19:16;-0.50;99.90
9033;DHT22;4551;53.164;8.210;2022-12-11T11:21:47;-0.50;99.90
9033;DHT22;4551;53.164;8.210;2022-12-11T11:27:03;-0.50;99.90
9033;DHT22;4551;53.164;8.210;2022-12-11T11:29:39;-0.50;99.90
9033;DHT22;4551;53.164;8.210;2022-12-11T11:32:14;-0.60;99.90
9033;DHT22;4551;53.164;8.210;2022-12-11T11:34:43;-0.60;99.90
9033;DHT22;4551;53.164;8.210;2022-12-11T11:37:20;-0.60;99.90
9033;DHT22;4551;53.164;8.210;2022-12-11T11:39:49;-0.60;99.90
9033;DHT22;4551;53.164;8.210;2022-12-11T11:42:21;-0.60;99.90
9033;DHT22;4551;53.164;8.210;2022-12-11T11:44:56;-0.60;99.90
9033;DHT22;4551;53.164;8.210;2022-12-11T11:47:29;-0.60;99.90
9033;DHT22;4551;53.164;8.210;2022-12-11T11:50:00;-0.60;99.90
9033;DHT22;4551;53.164;8.210;2022-12-11T11:52:31;-0.60;99.90
9033;DHT22;4551;53.164;8.210;2022-12-11T11:55:02;-0.60;99.90
9033;DHT22;4551;53.164;8.210;2022-12-11T11:57:41;-0.60;99.90
9033;DHT22;4551;53.164;8.210;2022-12-11T12:00:15;-0.60;99.90
9033;DHT22;4551;53.164;8.210;2022-12-11T12:02:44;-0.60;99.90
9033;DHT22;4551;53.164;8.210;2022-12-11T12:05:12;-0.70;99.90
9033;DHT22;4551;53.164;8.210;2022-12-11T12:07:46;-0.60;99.90
9033;DHT22;4551;53.164;8.210;2022-12-11T12:10:20;-0.60;99.90
9033;DHT22;4551;53.164;8.210;2022-12-11T12:12:52;-0.60;99.90
9033;DHT22;4551;53.164;8.210;2022-12-11T12:15:27;-0.60;99.90
9033;DHT22;4551;53.164;8.210;2022-12-11T12:18:04;-0.70;99.90
9033;DHT22;4551;53.164;8.210;2022-12-11T12:20:38;-0.70;99.90
9033;DHT22;4551;53.164;8.210;2022-12-11T12:23:21;-0.70;99.90
9033;DHT22;4551;53.164;8.210;2022-12-11T12:25:51;-0.60;99.90
9033;DHT22;4551;53.164;8.210;2022-12-11T12:28:26;-0.70;99.90
9033;DHT22;4551;53.164;8.210;2022-12-11T12:31:03;-0.70;99.90
9033;DHT22;4551;53.164;8.210;2022-12-11T12:33:39;-0.70;99.90
9033;DHT22;4551;53.164;8.210;2022-12-11T12:36:14;-0.70;99.90
9033;DHT22;4551;53.164;8.210;2022-12-11T12:38:46;-0.80;99.90
9033;DHT22;4551;53.164;8.210;2022-12-11T12:41:19;-0.70;99.90
9033;DHT22;4551;53.164;8.210;2022-12-11T12:46:42;-0.70;99.90
9033;DHT22;4551;53.164;8.210;2022-12-11T12:49:12;-0.60;99.90
9033;DHT22;4551;53.164;8.210;2022-12-11T12:51:42;-0.60;99.90
9033;DHT22;4551;53.164;8.210;2022-12-11T12:54:11;-0.60;99.90
9033;DHT22;4551;53.164;8.210;2022-12-11T12:56:40;-0.60;99.90
9033;DHT22;4551;53.164;8.210;2022-12-11T12:59:19;-0.60;99.90
9033;DHT22;4551;53.164;8.210;2022-12-11T13:01:50;-0.50;99.90
9033;DHT22;4551;53.164;8.210;2022-12-11T13:04:34;-0.50;99.90
9033;DHT22;4551;53.164;8.210;2022-12-11T13:07:24;-0.50;99.90
9033;DHT22;4551;53.164;8.210;2022-12-11T13:09:57;-0.50;99.90
9033;DHT22;4551;53.164;8.210;2022-12-11T13:12:30;-0.40;99.90
9033;DHT22;4551;53.164;8.210;2022-12-11T13:14:59;-0.40;99.90
9033;DHT22;4551;53.164;8.210;2022-12-11T13:17:36;-0.40;99.90
9033;DHT22;4551;53.164;8.210;2022-12-11T13:20:13;-0.40;99.90
9033;DHT22;4551;53.164;8.210;2022-12-11T13:22:48;-0.40;99.90
9033;DHT22;4551;53.164;8.210;2022-12-11T13:25:19;-0.40;99.90
9033;DHT22;4551;53.164;8.210;2022-12-11T13:27:47;-0.40;99.90
9033;DHT22;4551;53.164;8.210;2022-12-11T13:30:20;-0.40;99.90
9033;DHT22;4551;53.164;8.210;2022-12-11T13:32:53;-0.40;99.90
9033;DHT22;4551;53.164;8.210;2022-12-11T13:35:23;-0.30;99.90
9033;DHT22;4551;53.164;8.210;2022-12-11T13:37:52;-0.40;99.90
9033;DHT22;4551;53.164;8.210;2022-12-11T13:40:21;-0.30;99.90
9033;DHT22;4551;53.164;8.210;2022-12-11T13:42:51;-0.30;99.90
9033;DHT22;4551;53.164;8.210;2022-12-11T13:45:22;-0.30;99.90
9033;DHT22;4551;53.164;8.210;2022-12-11T13:47:55;-0.30;99.90
9033;DHT22;4551;53.164;8.210;2022-12-11T13:50:24;-0.30;99.90
9033;DHT22;4551;53.164;8.210;2022-12-11T13:52:53;-0.20;99.90
9033;DHT22;4551;53.164;8.210;2022-12-11T13:55:23;-0.30;99.90
9033;DHT22;4551;53.164;8.210;2022-12-11T13:57:51;-0.20;99.90
9033;DHT22;4551;53.164;8.210;2022-12-11T14:00:20;-0.20;99.90
9033;DHT22;4551;53.164;8.210;2022-12-11T14:02:49;-0.20;99.90
9033;DHT22;4551;53.164;8.210;2022-12-11T14:05:19;-0.20;99.90
9033;DHT22;4551;53.164;8.210;2022-12-11T14:07:48;-0.20;99.90
9033;DHT22;4551;53.164;8.210;2022-12-11T14:10:18;-0.10;99.90
9033;DHT22;4551;53.164;8.210;2022-12-11T14:12:49;-0.10;99.90
9033;DHT22;4551;53.164;8.210;2022-12-11T14:15:18;-0.10;99.90
9033;DHT22;4551;53.164;8.210;2022-12-11T14:17:46;-0.10;99.90
9033;DHT22;4551;53.164;8.210;2022-12-11T14:20:18;-0.10;99.90
9033;DHT22;4551;53.164;8.210;2022-12-11T14:23:02;0.00;99.90
9033;DHT22;4551;53.164;8.210;2022-12-11T14:25:38;0.00;99.90
9033;DHT22;4551;53.164;8.210;2022-12-11T14:28:12;0.00;99.90
9033;DHT22;4551;53.164;8.210;2022-12-11T14:30:44;0.00;99.90
9033;DHT22;4551;53.164;8.210;2022-12-11T14:33:13;0.00;99.90
9033;DHT22;4551;53.164;8.210;2022-12-11T14:35:43;-0.10;99.90
9033;DHT22;4551;53.164;8.210;2022-12-11T14:38:14;0.00;99.90
9033;DHT22;4551;53.164;8.210;2022-12-11T14:40:44;0.00;99.90
9033;DHT22;4551;53.164;8.210;2022-12-11T14:43:14;0.00;99.90
9033;DHT22;4551;53.164;8.210;2022-12-11T14:45:47;0.00;99.90
9033;DHT22;4551;53.164;8.210;2022-12-11T14:48:17;0.00;99.90
9033;DHT22;4551;53.164;8.210;2022-12-11T14:50:47;0.00;99.90
9033;DHT22;4551;53.164;8.210;2022-12-11T14:53:18;0.00;99.90
9033;DHT22;4551;53.164;8.210;2022-12-11T14:55:48;0.00;99.90
9033;DHT22;4551;53.164;8.210;2022-12-11T14:58:17;0.00;99.90
9033;DHT22;4551;53.164;8.210;2022-12-11T15:00:54;0.10;99.90
9033;DHT22;4551;53.164;8.210;2022-12-11T15:03:42;0.10;99.90
9033;DHT22;4551;53.164;8.210;2022-12-11T15:06:20;0.00;99.90
9033;DHT22;4551;53.164;8.210;2022-12-11T15:08:50;0.00;99.90
9033;DHT22;4551;53.164;8.210;2022-12-11T15:11:19;0.10;99.90
9033;DHT22;4551;53.164;8.210;2022-12-11T15:13:50;0.10;99.90
9033;DHT22;4551;53.164;8.210;2022-12-11T15:16:18;0.10;99.90
9033;DHT22;4551;53.164;8.210;2022-12-11T15:18:48;0.10;99.90
9033;DHT22;4551;53.164;8.210;2022-12-11T15:21:17;0.10;99.90
9033;DHT22;4551;53.164;8.210;2022-12-11T15:23:48;0.10;99.90
9033;DHT22;4551;53.164;8.210;2022-12-11T15:26:19;0.10;99.90
9033;DHT22;4551;53.164;8.210;2022-12-11T15:28:57;0.10;99.90
9033;DHT22;4551;53.164;8.210;2022-12-11T15:31:26;0.10;99.90
9033;DHT22;4551;53.164;8.210;2022-12-11T15:33:54;0.10;99.90
9033;DHT22;4551;53.164;8.210;2022-12-11T15:36:48;0.10;99.90
9033;DHT22;4551;53.164;8.210;2022-12-11T15:39:16;0.10;99.90
9033;DHT22;4551;53.164;8.210;2022-12-11T15:41:46;0.10;99.90
9033;DHT22;4551;53.164;8.210;2022-12-11T15:44:15;0.10;99.90
9033;DHT22;4551;53.164;8.210;2022-12-11T15:46:44;0.20;99.90
9033;DHT22;4551;53.164;8.210;2022-12-11T15:49:12;0.20;99.90
9033;DHT22;4551;53.164;8.210;2022-12-11T15:51:40;0.20;99.90
9033;DHT22;4551;53.164;8.210;2022-12-11T15:54:09;0.20;99.90
9033;DHT22;4551;53.164;8.210;2022-12-11T15:56:37;0.20;99.90
9033;DHT22;4551;53.164;8.210;2022-12-11T15:59:08;0.20;99.90
9033;DHT22;4551;53.164;8.210;2022-12-11T16:01:37;0.20;99.90
9033;DHT22;4551;53.164;8.210;2022-12-11T16:04:05;0.20;99.90
9033;DHT22;4551;53.164;8.210;2022-12-11T16:06:36;0.20;99.90
9033;DHT22;4551;53.164;8.210;2022-12-11T16:09:10;0.20;99.90
9033;DHT22;4551;53.164;8.210;2022-12-11T16:11:39;0.20;99.90
9033;DHT22;4551;53.164;8.210;2022-12-11T16:14:08;0.20;99.90
9033;DHT22;4551;53.164;8.210;2022-12-11T16:16:36;0.20;99.90
9033;DHT22;4551;53.164;8.210;2022-12-11T16:19:04;0.20;99.90
9033;DHT22;4551;53.164;8.210;2022-12-11T16:21:32;0.20;99.90
9033;DHT22;4551;53.164;8.210;2022-12-11T16:24:00;0.20;99.90
9033;DHT22;4551;53.164;8.210;2022-12-11T16:26:29;0.20;99.90
9033;DHT22;4551;53.164;8.210;2022-12-11T16:29:03;0.20;99.90
9033;DHT22;4551;53.164;8.210;2022-12-11T16:31:32;0.20;99.90
9033;DHT22;4551;53.164;8.210;2022-12-11T16:34:01;0.30;99.90
9033;DHT22;4551;53.164;8.210;2022-12-11T16:36:29;0.20;99.90
9033;DHT22;4551;53.164;8.210;2022-12-11T16:38:57;0.20;99.90
9033;DHT22;4551;53.164;8.210;2022-12-11T16:41:25;0.20;99.90
9033;DHT22;4551;53.164;8.210;2022-12-11T16:43:53;0.20;99.90